Freshford, Canada
Current Conditions -  °F | °C
As of 8:00 AM on Saturday 25 Oct 2014 (Local Time) from CYQD Reporting Station
Broken Clouds Broken Clouds  
Wind Chill: 27°   Ceiling: 2000
Heat Index: 37°   Visibility: 15mi
Dew Point: 28°   Wind: 18mph
Humidity: 70%   Direction: 280°W
Pressure: 29.83"   Gusts: 26mph
Location:  52.68°N, 101.23°W
Report Text: CYQD 251300Z 28016G23KT 15SM BKN020 03/M02 A2983 RMK SC6SLP112
Loading
Personal Weather Stations






























Interactive Weather Map
Tropical Storm Tracking
New forecast layout! Learn more

10-Day Weather Forecast

Advertisements
Track Severe Weather on mobile